New Kingstown, PA (17072)

8:33 AM EDT on March 24, 2017 (GMT -0400)
Dewalt Drive | | Change Station
Active Advisory: Winter Weather Advisory

Elev 440 ft 40.25 °N, 77.05 °W | Updated 19 seconds ago

Snow
Snow
34.7 °F
Feels Like 35 °F
N
3.0
Wind Variable Wind from West

Today
High -- | Low -- °F
--% Chance of Precip.
Yesterday
High -- | Low -- °F
Precip. -- in
Pressure 30.42 in
Visibility 10.0 miles
Clouds Scattered Clouds 8000 ft
Mostly Cloudy 10000 ft
Windchill 35 °F
Dew Point 23 °F
Humidity 63%
Rainfall 0.00 in
Snow Depth Not available.
7:04 AM 7:24 PM
Waning Crescent, 15% visible
METAR KCXY 241156Z VRB03KT 10SM SCT080 BKN100 03/M07 A3041 RMK AO2 SLP300 T00331067 10033 20011 55004
Pressure 30.42 in
Visibility 10.0 miles
Clouds Scattered Clouds 8000 ft
Mostly Cloudy 10000 ft
Windchill 35 °F
Dew Point 23 °F
Humidity 63%
Rainfall 0.00 in
Snow Depth Not available.
7:04 AM 7:24 PM
Waning Crescent, 15% visible
METAR KCXY 241156Z VRB03KT 10SM SCT080 BKN100 03/M07 A3041 RMK AO2 SLP300 T00331067 10033 20011 55004

Get Your Daily Forecast Email!

Thanks for signing up!

Be on the lookout for a verification email in your inbox.

You'll start receiving severe weather alerts in your inbox..

×

10-Day Weather Forecast

Almanac

Astronomy

Mar. 24, 2017 Rise Set
Actual Time
Civil Twilight
Nautical Twilight
Astronomical Twilight
Moon
Length of Visible Light
Length of Day
Tomorrow will be .
, % of the Moon is Illuminated

Today's Extremes

State Highs State Lows

Community

WunderPhotos

Upload Photos

1,962,540 photos uploaded!

WunderBlog® & News

Nearby

Air Quality

  Air Quality AQ Index Pollutant
Not available.

Snow Depth

Station Depth Elevation

Earthquake Activity

City Distance Mag. Time & Date
Minimum magnitude displayed is 2.5.

Earthquake Activity

City Distance Mag. Time & Date
Minimum magnitude displayed is 2.5.

Coastal Water Temperatures

Place Temperature

Stations

Nearby Weather Stations

Station Location Temp. Windchill Dew Point Humidity Wind Precip. Elev Updated Type
                   

Watches & Warnings

Winter Weather Advisory
Issued: 5:40 AM EDT Mar. 24, 2017 – National Weather Service

... Winter Weather Advisory in effect until 11 am EDT this
morning...

The National Weather Service in State College has issued a Winter
Weather Advisory for light mixed precipitation, which is in
effect until 11 am EDT this morning.

* Timing... during the mid to late morning hours today.

* Hazards... patchy freezing rain with some sleet also possible.

* Accumulations... around a trace of ice.

* Temperatures... in the lower to mid 30s.

* Impacts... patchy light icing may create slippery spots on colder
elevated surfaces, along with untreated roads, bridges and
sidewalks.

Precautionary/preparedness actions...

The Pennsylvania Department of Transportation reminds motorists
to adjust speeds based on driving conditions and to take it slow
in ice and snow.